sensor_id;sensor_type;location;lat;lon;timestamp;temperature;humidity
55008;DHT22;40902;45.116;21.296;2023-06-14T04:10:12;435.40;2355.20
55008;DHT22;40902;45.116;21.296;2023-06-14T04:12:38;435.30;2355.20
55008;DHT22;40902;45.116;21.296;2023-06-14T04:22:32;436.00;2355.20
55008;DHT22;40902;45.116;21.296;2023-06-14T04:24:58;435.90;2355.20
55008;DHT22;40902;45.116;21.296;2023-06-14T04:44:45;461.70;2380.80
55008;DHT22;40902;45.116;21.296;2023-06-14T04:47:13;461.70;2380.80
55008;DHT22;40902;45.116;21.296;2023-06-14T04:49:39;461.50;2380.80
55008;DHT22;40902;45.116;21.296;2023-06-14T04:52:07;461.50;2380.80
55008;DHT22;40902;45.116;21.296;2023-06-14T04:54:33;461.50;2380.80
55008;DHT22;40902;45.116;21.296;2023-06-14T04:56:59;461.60;2380.80
55008;DHT22;40902;45.116;21.296;2023-06-14T04:59:25;461.50;2380.80
55008;DHT22;40902;45.116;21.296;2023-06-14T05:01:51;461.50;2380.80
55008;DHT22;40902;45.116;21.296;2023-06-14T05:04:18;461.60;2380.80
55008;DHT22;40902;45.116;21.296;2023-06-14T05:06:44;461.70;2380.80
55008;DHT22;40902;45.116;21.296;2023-06-14T05:09:12;486.40;2380.80
55008;DHT22;40902;45.116;21.296;2023-06-14T05:11:37;486.60;2380.80
55008;DHT22;40902;45.116;21.296;2023-06-14T05:14:03;486.50;2380.80
55008;DHT22;40902;45.116;21.296;2023-06-14T05:16:29;486.60;2380.80
55008;DHT22;40902;45.116;21.296;2023-06-14T05:18:55;486.60;2380.80
55008;DHT22;40902;45.116;21.296;2023-06-14T05:21:21;486.60;2380.80
55008;DHT22;40902;45.116;21.296;2023-06-14T05:23:47;486.60;2380.80
55008;DHT22;40902;45.116;21.296;2023-06-14T05:26:13;486.60;2380.80
55008;DHT22;40902;45.116;21.296;2023-06-14T05:28:38;486.70;2380.80
55008;DHT22;40902;45.116;21.296;2023-06-14T05:31:04;486.70;2380.80
55008;DHT22;40902;45.116;21.296;2023-06-14T05:33:30;486.80;2380.80
55008;DHT22;40902;45.116;21.296;2023-06-14T05:35:56;486.90;2380.80
55008;DHT22;40902;45.116;21.296;2023-06-14T05:38:21;486.90;2380.80
55008;DHT22;40902;45.116;21.296;2023-06-14T05:40:47;487.00;2380.80
55008;DHT22;40902;45.116;21.296;2023-06-14T05:43:13;486.90;2380.80
55008;DHT22;40902;45.116;21.296;2023-06-14T05:45:39;487.00;2380.80
55008;DHT22;40902;45.116;21.296;2023-06-14T05:48:05;487.00;2380.80
55008;DHT22;40902;45.116;21.296;2023-06-14T05:50:30;487.00;2380.80
55008;DHT22;40902;45.116;21.296;2023-06-14T05:52:56;487.20;2380.80
55008;DHT22;40902;45.116;21.296;2023-06-14T05:55:22;487.20;2380.80
55008;DHT22;40902;45.116;21.296;2023-06-14T06:05:12;512.70;2380.80
55008;DHT22;40902;45.116;21.296;2023-06-14T06:07:38;512.30;2380.80
55008;DHT22;40902;45.116;21.296;2023-06-14T06:10:06;512.40;2380.80
55008;DHT22;40902;45.116;21.296;2023-06-14T06:12:32;512.40;2380.80
55008;DHT22;40902;45.116;21.296;2023-06-14T06:14:58;512.60;2380.80
55008;DHT22;40902;45.116;21.296;2023-06-14T06:17:25;512.70;2380.80
55008;DHT22;40902;45.116;21.296;2023-06-14T06:19:51;512.70;2380.80
55008;DHT22;40902;45.116;21.296;2023-06-14T06:22:17;512.90;2380.80
55008;DHT22;40902;45.116;21.296;2023-06-14T06:24:43;537.70;2406.40
55008;DHT22;40902;45.116;21.296;2023-06-14T06:27:08;537.60;2406.40
55008;DHT22;40902;45.116;21.296;2023-06-14T06:29:35;537.70;2406.40
55008;DHT22;40902;45.116;21.296;2023-06-14T06:32:01;537.80;2406.40
55008;DHT22;40902;45.116;21.296;2023-06-14T06:34:27;538.10;2406.40
55008;DHT22;40902;45.116;21.296;2023-06-14T06:36:52;537.90;2406.40
55008;DHT22;40902;45.116;21.296;2023-06-14T06:39:18;537.70;2406.40
55008;DHT22;40902;45.116;21.296;2023-06-14T06:41:44;537.80;2406.40
55008;DHT22;40902;45.116;21.296;2023-06-14T06:44:10;537.60;2406.40
55008;DHT22;40902;45.116;21.296;2023-06-14T06:46:36;537.70;2406.40
55008;DHT22;40902;45.116;21.296;2023-06-14T06:49:05;537.60;2406.40
55008;DHT22;40902;45.116;21.296;2023-06-14T06:51:31;537.60;2406.40
55008;DHT22;40902;45.116;21.296;2023-06-14T06:53:57;537.70;2406.40
55008;DHT22;40902;45.116;21.296;2023-06-14T06:56:23;537.60;2406.40
55008;DHT22;40902;45.116;21.296;2023-06-14T06:58:50;537.60;2406.40
55008;DHT22;40902;45.116;21.296;2023-06-14T07:01:16;537.70;2406.40
55008;DHT22;40902;45.116;21.296;2023-06-14T07:03:42;537.60;2406.40
55008;DHT22;40902;45.116;21.296;2023-06-14T07:06:08;537.70;2406.40
55008;DHT22;40902;45.116;21.296;2023-06-14T07:13:27;537.80;2406.40
55008;DHT22;40902;45.116;21.296;2023-06-14T07:15:59;537.80;2406.40
55008;DHT22;40902;45.116;21.296;2023-06-14T07:18:26;537.80;2406.40
55008;DHT22;40902;45.116;21.296;2023-06-14T07:20:55;537.90;2406.40
55008;DHT22;40902;45.116;21.296;2023-06-14T07:23:22;538.00;2406.40
55008;DHT22;40902;45.116;21.296;2023-06-14T07:25:48;538.00;2406.40
55008;DHT22;40902;45.116;21.296;2023-06-14T07:28:14;538.10;2406.40
55008;DHT22;40902;45.116;21.296;2023-06-14T07:30:40;538.20;2406.40
55008;DHT22;40902;45.116;21.296;2023-06-14T07:33:05;538.30;2406.40
55008;DHT22;40902;45.116;21.296;2023-06-14T07:37:58;538.40;2406.40
55008;DHT22;40902;45.116;21.296;2023-06-14T07:40:24;538.30;2406.40
55008;DHT22;40902;45.116;21.296;2023-06-14T23:32:03;512.60;2380.80
55008;DHT22;40902;45.116;21.296;2023-06-14T23:34:30;512.50;2380.80
55008;DHT22;40902;45.116;21.296;2023-06-14T23:36:59;512.40;2380.80
55008;DHT22;40902;45.116;21.296;2023-06-14T23:39:27;512.50;2380.80
55008;DHT22;40902;45.116;21.296;2023-06-14T23:41:53;512.40;2380.80
55008;DHT22;40902;45.116;21.296;2023-06-14T23:44:19;512.40;2380.80
55008;DHT22;40902;45.116;21.296;2023-06-14T23:46:50;512.40;2380.80
55008;DHT22;40902;45.116;21.296;2023-06-14T23:49:22;512.40;2380.80
55008;DHT22;40902;45.116;21.296;2023-06-14T23:51:48;512.30;2380.80
55008;DHT22;40902;45.116;21.296;2023-06-14T23:54:14;512.30;2380.80
55008;DHT22;40902;45.116;21.296;2023-06-14T23:56:43;512.30;2380.80
55008;DHT22;40902;45.116;21.296;2023-06-14T23:59:16;512.30;2380.80
